Time;durP1;ratioP1;P1;durP2;ratioP2;P2;SDS_P1;SDS_P2;PMS_P1;PMS_P2;Temp;Humidity;BMP_temperature;BMP_pressure;BME280_temperature;BME280_humidity;BME280_pressure;Samples;Min_cycle;Max_cycle;Signal;HPM_P1;HPM_P2
2022/07/10 00:01:22;;;;;;;4.65;4.35;;;;;;;21.54;54.03;96538.09;4872757;29;20457;-71
2022/07/10 00:03:49;;;;;;;4.47;4.10;;;;;;;21.59;54.08;96542.38;4889336;29;20309;-71
2022/07/10 00:06:17;;;;;;;4.63;4.22;;;;;;;21.08;53.91;96462.00;4889667;29;20064;-67
2022/07/10 00:08:44;;;;;;;4.93;4.47;;;;;;;21.43;54.23;96517.97;4872963;29;20064;-70
2022/07/10 00:11:11;;;;;;;7.47;5.72;;;;;;;21.57;54.39;96540.00;4889291;29;20538;-70
2022/07/10 00:13:38;;;;;;;5.93;4.57;;;;;;;21.58;54.16;96541.59;4889197;29;20060;-71
2022/07/10 00:16:06;;;;;;;5.00;4.60;;;;;;;21.33;54.13;96490.91;4889492;29;20072;-71
2022/07/10 00:18:32;;;;;;;4.10;3.90;;;;;;;21.67;54.52;96547.31;4889401;29;20099;-72
2022/07/10 00:20:59;;;;;;;5.10;4.80;;;;;;;21.73;54.93;96541.88;4899235;29;20056;-67
2022/07/10 00:23:26;;;;;;;5.22;4.82;;;;;;;21.83;54.70;96541.53;4908170;29;20060;-68
2022/07/10 00:25:54;;;;;;;6.85;6.20;;;;;;;21.88;54.85;96535.31;4907874;29;20067;-68
2022/07/10 00:28:21;;;;;;;5.07;4.75;;;;;;;21.87;54.64;96535.78;4908289;29;20119;-71
2022/07/10 00:30:48;;;;;;;4.97;4.63;;;;;;;21.71;54.64;96539.53;4908003;29;20060;-68
2022/07/10 00:33:15;;;;;;;4.78;4.38;;;;;;;21.56;55.45;96532.78;4908262;29;20060;-71
2022/07/10 00:35:42;;;;;;;4.70;4.30;;;;;;;21.58;55.23;96535.16;4908421;29;20059;-71
2022/07/10 00:38:09;;;;;;;4.90;4.50;;;;;;;21.55;55.81;96531.22;4908386;29;20056;-71
2022/07/10 00:40:36;;;;;;;4.70;4.38;;;;;;;21.52;56.29;96529.31;4907948;29;20068;-71
2022/07/10 00:43:07;;;;;;;12.93;7.07;;;;;;;21.46;57.17;96536.78;4910101;29;20056;-70
2022/07/10 02:07:28;;;;;;;5.97;5.47;;;;;;;20.92;61.70;96511.56;4875213;29;20080;-67
2022/07/10 02:14:09;;;;;;;5.70;5.20;;;;;;;20.92;61.43;96502.31;4796611;29;20069;-69
2022/07/10 02:16:36;;;;;;;4.68;4.38;;;;;;;20.86;61.57;96512.56;4803809;29;20132;-68
2022/07/10 02:20:00;;;;;;;5.80;5.30;;;;;;;20.78;61.93;96511.22;4868554;29;20450;-70
2022/07/10 02:22:27;;;;;;;5.75;5.25;;;;;;;20.39;62.36;96460.97;4889921;29;20068;-71
2022/07/10 02:24:54;;;;;;;5.22;4.90;;;;;;;20.61;62.77;96512.56;4891225;29;20086;-71
2022/07/10 02:27:36;;;;;;;6.03;4.82;;;;;;;20.54;63.50;96507.13;4891018;29;20064;-71
2022/07/10 02:30:03;;;;;;;6.00;5.47;;;;;;;20.49;63.61;96500.03;4891151;29;20052;-69
2022/07/10 02:32:31;;;;;;;6.28;5.78;;;;;;;20.51;63.68;96508.03;4891566;29;20147;-68
2022/07/10 02:35:00;;;;;;;5.57;5.18;;;;;;;20.56;63.53;96504.66;4890722;29;20567;-70
2022/07/10 02:37:32;;;;;;;5.43;4.85;;;;;;;20.56;63.78;96505.47;4891232;29;20126;-70
2022/07/10 02:40:59;;;;;;;5.72;5.07;;;;;;;20.62;63.80;96508.50;4832187;29;20106;-68
2022/07/10 02:43:29;;;;;;;6.60;5.45;;;;;;;20.28;64.00;96471.78;4856271;29;20155;-71
2022/07/10 02:46:04;;;;;;;5.20;4.80;;;;;;;20.50;64.30;96512.09;4890586;29;20060;-67
2022/07/10 02:48:31;;;;;;;5.95;5.43;;;;;;;20.38;64.87;96510.03;4891362;29;20066;-71
2022/07/10 02:50:58;;;;;;;5.88;5.38;;;;;;;20.15;65.76;96507.53;4890202;29;20056;-68
2022/07/10 02:53:25;;;;;;;6.35;5.85;;;;;;;20.19;65.87;96508.97;4890217;29;20067;-70
2022/07/10 02:55:52;;;;;;;6.43;5.78;;;;;;;20.25;65.66;96506.44;4890171;29;20532;-70
2022/07/10 02:58:19;;;;;;;5.68;5.28;;;;;;;20.26;66.22;96508.00;4890884;29;20064;-67
2022/07/10 03:00:56;;;;;;;5.90;5.38;;;;;;;20.29;66.33;96504.28;4890647;29;20064;-70
2022/07/10 03:03:23;;;;;;;6.55;5.68;;;;;;;20.29;66.16;96523.97;4890540;29;20238;-68
2022/07/10 03:09:42;;;;;;;6.03;4.95;;;;;;;20.38;65.67;96518.47;4887981;29;20963;-68
2022/07/10 03:25:16;;;;;;;5.85;5.43;;;;;;;19.96;67.56;96522.50;4851452;29;20087;-69
2022/07/10 03:28:36;;;;;;;;;;;;;;;;;;;;;
2022/07/10 03:38:52;;;;;;;;;;;;;;;;;;;;;
2022/07/10 04:45:45;;;;;;;;;;;;;;;21.19;65.14;96496.22;4884657;29;20060;-68
2022/07/10 04:48:12;;;;;;;8.77;6.22;;;;;;;21.00;65.14;96450.19;4874239;29;19927;-67
2022/07/10 04:50:39;;;;;;;7.50;5.75;;;;;;;21.30;64.96;96503.09;4856989;29;20061;-71
2022/07/10 04:53:06;;;;;;;6.18;5.57;;;;;;;21.14;65.40;96500.41;4874013;29;20053;-70
2022/07/10 04:55:33;;;;;;;6.60;6.00;;;;;;;21.40;65.04;96496.31;4873880;29;20061;-70
2022/07/10 04:58:00;;;;;;;6.93;6.22;;;;;;;21.42;64.28;96507.91;4874331;29;20069;-68
2022/07/10 05:00:27;;;;;;;8.63;7.43;;;;;;;21.60;63.28;96510.13;4873974;29;20144;-69
2022/07/10 05:02:54;;;;;;;6.75;6.13;;;;;;;21.42;64.13;96507.91;4874124;29;20104;-68
2022/07/10 05:05:21;;;;;;;5.25;4.80;;;;;;;21.33;63.47;96507.81;4874016;29;20067;-68
2022/07/10 05:07:49;;;;;;;7.25;6.50;;;;;;;21.02;63.87;96408.28;4874288;29;20452;-68
2022/07/10 05:10:16;;;;;;;7.63;6.50;;;;;;;21.85;63.24;96505.22;4873399;29;20532;-69
2022/07/10 05:12:43;;;;;;;7.13;6.50;;;;;;;22.02;62.10;96503.00;4873963;29;20053;-69
2022/07/10 05:31:59;;;;;;;7.45;6.53;;;;;;;22.30;59.83;96508.38;4869432;29;20067;-73
2022/07/10 05:34:26;;;;;;;6.30;5.80;;;;;;;22.34;59.35;96506.22;4857174;29;20080;-73
2022/07/10 05:36:53;;;;;;;7.75;6.95;;;;;;;21.95;58.93;96422.25;4873872;29;20065;-66
2022/07/10 05:39:21;;;;;;;7.95;7.00;;;;;;;22.52;59.11;96507.59;4856569;29;20073;-73
2022/07/10 05:41:49;;;;;;;8.07;6.55;;;;;;;22.77;58.80;96507.41;4873118;29;20053;-73
2022/07/10 05:44:19;;;;;;;7.15;6.25;;;;;;;22.83;58.50;96508.38;4873330;29;20105;-73
2022/07/10 05:46:46;;;;;;;7.88;6.15;;;;;;;22.93;57.93;96470.47;4856315;29;20088;-67
2022/07/10 05:49:13;;;;;;;7.68;6.97;;;;;;;23.47;55.75;96527.19;4873440;29;20111;-75
2022/07/10 05:51:40;;;;;;;8.15;6.45;;;;;;;23.17;57.85;96514.69;4872846;29;20056;-76
2022/07/10 05:54:14;;;;;;;6.03;5.43;;;;;;;23.04;57.61;96516.81;4873454;29;20057;-75
2022/07/10 05:56:41;;;;;;;6.40;5.80;;;;;;;22.81;56.49;96424.13;4856242;29;20057;-73
2022/07/10 05:59:10;;;;;;;7.25;6.55;;;;;;;23.48;55.14;96525.91;4872693;29;20061;-73
2022/07/10 06:15:39;;;;;;;6.63;6.07;;;;;;;24.08;52.39;96521.31;4872965;29;20125;-69
2022/07/10 06:18:06;;;;;;;7.60;6.68;;;;;;;23.09;53.92;96376.97;4873507;29;20080;-67
2022/07/10 06:20:33;;;;;;;9.55;6.60;;;;;;;24.27;51.49;96443.59;4872763;29;20150;-73
2022/07/10 06:23:00;;;;;;;8.88;6.13;;;;;;;24.34;51.39;96516.91;4887362;29;20116;-73
2022/07/10 06:25:26;;;;;;;10.13;6.40;;;;;;;23.84;52.74;96525.97;4891152;29;20064;-72
2022/07/10 06:27:53;;;;;;;8.50;7.63;;;;;;;23.98;52.42;96494.25;4891654;29;20060;-73
2022/07/10 06:30:20;;;;;;;10.98;7.40;;;;;;;24.34;52.98;96528.22;4891183;29;20063;-73
2022/07/10 06:32:46;;;;;;;14.35;8.80;;;;;;;23.54;52.68;96423.03;4890702;29;20049;-67
2022/07/10 06:35:13;;;;;;;8.32;7.65;;;;;;;24.44;51.76;96535.44;4890514;29;20064;-73
2022/07/10 06:37:40;;;;;;;7.72;6.93;;;;;;;24.32;52.81;96532.78;4905413;29;20067;-72
2022/07/10 06:40:09;;;;;;;8.90;6.13;;;;;;;23.83;51.71;96484.81;4889225;29;20072;-74
2022/07/10 06:42:36;;;;;;;10.07;8.32;;;;;;;23.97;53.25;96543.63;4874444;29;20056;-73
2022/07/10 06:45:10;;;;;;;10.30;8.52;;;;;;;24.00;52.82;96531.38;4890710;29;20053;-67
2022/07/10 06:50:25;;;;;;;26.50;12.73;;;;;;;21.23;53.06;96080.75;4890844;29;20056;-67
2022/07/10 06:52:53;;;;;;;13.30;8.27;;;;;;;23.79;53.70;96526.59;4891028;29;20060;-73
2022/07/10 06:55:19;;;;;;;10.98;8.27;;;;;;;23.85;53.45;96527.56;4890653;29;20436;-67
2022/07/10 06:57:47;;;;;;;10.27;7.68;;;;;;;23.53;53.30;96460.28;4889690;29;20068;-72
2022/07/10 07:00:15;;;;;;;19.35;12.15;;;;;;;21.67;53.08;96180.81;4889428;29;20064;-73
2022/07/10 07:02:42;;;;;;;10.23;8.60;;;;;;;23.24;53.02;96446.53;4890525;29;20052;-67
2022/07/10 07:05:10;;;;;;;15.35;9.10;;;;;;;23.78;54.12;96542.00;4873872;29;20056;-74
2022/07/10 07:07:37;;;;;;;7.30;6.70;;;;;;;23.39;53.37;96401.53;4890682;29;20057;-67
2022/07/10 07:10:04;;;;;;;8.95;8.15;;;;;;;23.94;52.44;96403.06;4890565;29;20056;-72
2022/07/10 07:12:31;;;;;;;10.77;9.32;;;;;;;24.68;52.74;96516.56;4890593;29;20053;-67
2022/07/10 07:14:58;;;;;;;8.50;7.60;;;;;;;25.09;51.73;96521.44;4890537;29;20506;-73
2022/07/10 07:17:33;;;;;;;7.60;7.05;;;;;;;24.82;49.99;96411.03;4890317;29;20511;-67
2022/07/10 07:25:31;;;;;;;9.90;9.02;;;;;;;24.55;51.00;96475.50;4870462;29;20068;-68
2022/07/10 07:27:58;;;;;;;8.48;7.68;;;;;;;24.79;50.72;96519.66;4871883;29;20057;-72
2022/07/10 09:13:15;;;;;;;11.75;10.80;;;;;;;26.10;49.22;96554.50;5903478;23;20019;-76
2022/07/10 13:05:53;;;;;;;8.93;8.32;;;;;;;36.29;29.59;96440.13;5917325;23;22076;-76
2022/07/10 13:51:38;;;;;;;9.00;8.40;;;;;;;29.78;39.01;96450.97;4874085;29;20060;-68
2022/07/10 14:01:40;;;;;;;8.10;7.60;;;;;;;29.65;37.86;96435.56;4872757;29;20059;-68
2022/07/10 14:04:39;;;;;;;8.48;7.88;;;;;;;29.54;38.68;96422.00;4872697;29;20091;-68
2022/07/10 14:07:08;;;;;;;8.70;8.10;;;;;;;29.66;37.90;96429.34;4870056;29;20583;-76
2022/07/10 14:09:35;;;;;;;8.90;8.32;;;;;;;30.98;36.74;96421.13;4872770;29;20467;-68
2022/07/10 14:12:44;;;;;;;9.05;8.20;;;;;;;33.01;32.92;96420.84;4872735;29;20072;-68
2022/07/10 14:37:28;;;;;;;8.48;7.97;;;;;;;29.96;36.71;96406.88;4814251;29;20115;-76
2022/07/10 14:40:01;;;;;;;8.70;8.10;;;;;;;28.90;37.95;96401.81;4814525;29;20138;-68
2022/07/10 15:46:32;;;;;;;10.65;9.00;;;;;;;21.18;95.18;96438.31;4868608;29;20095;-73
2022/07/10 15:48:59;;;;;;;9.60;7.90;;;;;;;21.15;92.00;96433.59;4871356;29;20061;-72
2022/07/10 15:51:26;;;;;;;20.90;12.43;;;;;;;21.46;92.69;96500.13;4870985;29;20484;-68
2022/07/10 15:53:52;;;;;;;26.13;13.95;;;;;;;21.20;94.79;96456.34;4871107;29;20519;-71
2022/07/10 15:56:19;;;;;;;20.52;11.73;;;;;;;20.84;96.98;96424.94;4854044;29;20068;-71
2022/07/10 15:58:46;;;;;;;16.73;11.73;;;;;;;21.29;100.00;96455.66;4854357;29;20068;-67
2022/07/10 16:01:13;;;;;;;13.70;9.93;;;;;;;21.40;99.39;96462.50;4779734;29;20056;-72
2022/07/10 16:03:40;;;;;;;12.43;9.35;;;;;;;21.47;96.55;96484.00;4871018;29;20057;-72
2022/07/10 16:06:08;;;;;;;12.25;9.23;;;;;;;20.79;98.50;96338.22;4854251;29;20065;-73
2022/07/10 16:08:34;;;;;;;11.15;9.10;;;;;;;22.11;96.12;96478.44;4871385;29;20067;-67
2022/07/10 16:11:01;;;;;;;10.32;8.70;;;;;;;22.45;93.02;96498.13;4854171;29;20057;-72
2022/07/10 16:13:30;;;;;;;11.63;10.02;;;;;;;22.84;91.08;96487.38;4870455;29;20261;-67
2022/07/10 16:15:57;;;;;;;11.40;10.18;;;;;;;22.56;91.71;96412.28;4870626;29;20061;-73
2022/07/10 16:18:25;;;;;;;8.93;8.13;;;;;;;22.66;84.33;96293.25;4871083;29;20088;-68
2022/07/10 16:20:51;;;;;;;8.60;7.88;;;;;;;24.91;78.33;96493.16;4854119;29;20489;-67
2022/07/10 16:23:18;;;;;;;10.98;9.93;;;;;;;24.24;79.09;96305.84;4870414;29;20525;-67
2022/07/10 16:25:59;;;;;;;11.23;8.88;;;;;;;24.40;75.43;96466.88;4870780;29;20065;-67
2022/07/10 16:28:30;;;;;;;8.85;8.05;;;;;;;24.11;77.63;96452.44;4854322;29;20080;-73
2022/07/10 16:30:58;;;;;;;9.07;8.15;;;;;;;24.21;77.37;96428.53;4870776;29;20072;-72
2022/07/10 16:33:26;;;;;;;20.10;11.13;;;;;;;24.98;74.36;96512.69;4870530;29;20447;-74
2022/07/10 16:35:53;;;;;;;9.00;8.15;;;;;;;24.25;74.94;96454.63;4870438;29;20056;-68
2022/07/10 16:38:20;;;;;;;8.00;7.40;;;;;;;24.12;73.98;96493.66;4871033;29;20065;-74
2022/07/10 16:40:47;;;;;;;8.70;7.90;;;;;;;23.53;75.86;96451.78;4870828;29;20653;-68
2022/07/10 16:43:14;;;;;;;8.70;7.90;;;;;;;23.55;77.80;96511.50;4870877;29;20057;-67
2022/07/10 16:45:42;;;;;;;9.55;8.60;;;;;;;23.44;81.88;96505.50;4854330;29;20527;-71
2022/07/10 16:48:09;;;;;;;9.23;8.32;;;;;;;23.59;80.41;96506.47;4870156;29;20516;-67
2022/07/10 16:50:37;;;;;;;9.68;8.68;;;;;;;23.48;81.42;96472.19;4870624;29;20129;-73
2022/07/10 16:53:04;;;;;;;8.50;7.75;;;;;;;23.77;79.88;96512.16;4871377;29;20391;-73
2022/07/10 16:55:31;;;;;;;9.73;7.82;;;;;;;23.17;81.25;96443.22;4870394;29;20065;-67
2022/07/10 16:57:58;;;;;;;12.25;9.20;;;;;;;23.61;83.48;96498.31;4871091;29;20060;-67
2022/07/10 17:00:25;;;;;;;9.50;8.65;;;;;;;22.87;82.13;96396.06;4870415;29;20061;-67
2022/07/10 17:02:52;;;;;;;9.13;8.23;;;;;;;23.66;79.76;96500.53;4870622;29;20460;-74
2022/07/10 17:05:18;;;;;;;9.32;8.40;;;;;;;23.50;79.59;96464.84;4870779;29;20064;-67
2022/07/10 17:07:45;;;;;;;9.15;8.13;;;;;;;23.84;78.25;96506.97;4870914;29;20053;-67
2022/07/10 17:10:12;;;;;;;8.40;7.70;;;;;;;23.35;75.76;96429.94;4870568;29;20099;-74
2022/07/10 17:12:39;;;;;;;9.07;8.23;;;;;;;23.52;77.73;96455.88;4870789;29;20076;-72
2022/07/10 17:15:06;;;;;;;8.88;8.13;;;;;;;23.28;76.53;96406.84;4870340;29;20068;-75
2022/07/10 17:17:40;;;;;;;9.38;8.48;;;;;;;23.85;79.36;96533.22;4870839;29;20068;-67
2022/07/10 17:20:08;;;;;;;10.07;8.25;;;;;;;23.66;78.24;96529.56;4870603;29;20064;-67
2022/07/10 17:22:35;;;;;;;9.18;8.27;;;;;;;23.52;77.71;96529.41;4870847;29;20077;-67
2022/07/10 17:25:02;;;;;;;13.90;11.45;;;;;;;22.48;79.38;96419.44;4858488;29;20057;-67
2022/07/10 17:27:29;;;;;;;9.13;7.45;;;;;;;23.26;80.01;96533.72;4838515;29;20065;-73
2022/07/10 17:29:56;;;;;;;10.95;9.18;;;;;;;22.94;82.28;96511.56;4855084;29;20054;-73
2022/07/10 17:32:23;;;;;;;9.27;8.30;;;;;;;23.00;80.87;96533.09;4855152;29;20161;-74
2022/07/10 17:34:50;;;;;;;8.43;7.63;;;;;;;22.77;82.28;96530.00;4854890;29;20065;-73
2022/07/10 17:37:17;;;;;;;8.48;7.68;;;;;;;22.66;83.23;96535.28;4855099;29;20163;-67
2022/07/10 17:39:44;;;;;;;8.50;7.68;;;;;;;;;;4854650;29;20065;-74
2022/07/10 17:42:11;;;;;;;8.23;7.43;;;;;;;22.38;84.64;96537.91;4855020;29;20057;-72
2022/07/10 17:44:38;;;;;;;9.48;8.57;;;;;;;22.41;83.74;96536.97;4854726;29;20065;-67
2022/07/10 17:47:06;;;;;;;7.72;7.03;;;;;;;22.27;84.17;96543.16;4853424;29;20089;-68
2022/07/10 17:49:33;;;;;;;7.90;6.88;;;;;;;22.08;84.82;96541.44;4854600;29;20057;-67
2022/07/10 17:52:01;;;;;;;8.88;8.07;;;;;;;22.02;85.74;96543.28;4854938;29;20058;-71
2022/07/10 17:54:28;;;;;;;8.55;7.60;;;;;;;22.03;84.84;96544.88;4854955;29;20062;-74
2022/07/10 18:14:31;;;;;;;9.00;6.88;;;;;;;21.66;83.39;96571.13;4852426;29;20121;-74
2022/07/10 18:16:58;;;;;;;7.80;7.20;;;;;;;21.17;81.66;96499.50;4854222;29;20061;-72
2022/07/10 18:19:25;;;;;;;8.02;6.60;;;;;;;21.65;79.93;96585.66;4854446;29;20097;-74
2022/07/10 18:21:52;;;;;;;7.82;7.03;;;;;;;21.59;81.49;96571.34;4854005;29;20061;-67
2022/07/10 18:24:20;;;;;;;9.80;6.75;;;;;;;21.62;79.29;96578.91;4854456;29;20058;-67
2022/07/10 18:26:47;;;;;;;6.90;6.30;;;;;;;21.67;77.52;96580.38;4853869;29;20068;-67
2022/07/10 18:29:15;;;;;;;8.23;7.00;;;;;;;21.58;76.54;96575.41;4854037;29;20061;-67
2022/07/10 18:31:48;;;;;;;9.82;6.63;;;;;;;21.56;78.12;96580.69;4854339;29;20057;-67
2022/07/10 18:34:27;;;;;;;7.90;6.50;;;;;;;21.64;76.98;96584.88;4854454;29;20068;-67
2022/07/10 18:36:55;;;;;;;9.40;6.45;;;;;;;20.67;77.32;96460.09;4853052;29;20067;-73
2022/07/10 18:39:22;;;;;;;6.35;5.95;;;;;;;21.21;78.92;96567.81;4853783;29;20061;-74
2022/07/10 18:41:52;;;;;;;6.40;5.80;;;;;;;21.19;81.12;96592.00;4854111;29;20064;-67
2022/07/10 18:44:20;;;;;;;6.53;5.97;;;;;;;21.11;82.43;96599.09;4854139;29;20061;-67
2022/07/10 18:46:56;;;;;;;6.53;5.93;;;;;;;21.13;81.96;96600.25;4853890;29;20053;-74
2022/07/10 18:49:23;;;;;;;8.90;6.00;;;;;;;21.06;82.05;96599.66;4854007;29;20054;-75
2022/07/10 18:51:50;;;;;;;6.88;5.57;;;;;;;20.60;81.66;96533.47;4853817;29;20067;-67
2022/07/10 18:54:18;;;;;;;5.93;5.30;;;;;;;20.87;82.00;96609.88;4853954;29;20064;-67
2022/07/10 18:56:45;;;;;;;6.63;5.93;;;;;;;20.77;82.87;96622.25;4853540;29;20065;-67
2022/07/10 20:28:24;;;;;;;6.93;4.95;;;;;;;20.45;64.75;96713.22;4859875;29;19934;-68
2022/07/10 20:30:51;;;;;;;5.43;4.80;;;;;;;20.50;65.31;96711.91;4870359;29;20057;-68
2022/07/10 20:33:19;;;;;;;6.55;5.95;;;;;;;20.63;66.06;96707.09;4839009;29;20057;-75
2022/07/10 20:37:39;;;;;;;7.05;6.40;;;;;;;20.62;68.62;96694.25;4870428;29;20069;-68
2022/07/10 20:38:32;;;;;;;10.18;5.95;;;;;;;20.67;67.88;96688.91;4870590;29;20061;-67
2022/07/10 20:40:59;;;;;;;6.25;5.30;;;;;;;20.68;66.01;96687.66;4870303;29;20113;-68
2022/07/10 22:27:59;;;;;;;6.03;5.45;;;;;;;17.65;81.22;96719.97;4871531;29;20143;-67
2022/07/10 22:33:12;;;;;;;22.25;8.30;;;;;;;17.62;81.15;96709.63;4872504;29;20053;-74
2022/07/10 22:35:39;;;;;;;10.23;6.20;;;;;;;17.29;81.62;96662.91;4872358;29;20071;-68
2022/07/10 22:38:06;;;;;;;6.10;5.60;;;;;;;17.74;78.81;96717.41;4869980;29;20073;-67
2022/07/10 22:40:34;;;;;;;6.05;5.30;;;;;;;17.84;78.91;96720.06;4855584;29;20060;-68
2022/07/10 22:43:01;;;;;;;6.40;5.85;;;;;;;17.88;80.07;96734.78;4872214;29;20072;-68
2022/07/10 22:45:30;;;;;;;7.38;5.32;;;;;;;17.62;79.56;96670.41;4871983;29;20131;-67
2022/07/10 22:47:57;;;;;;;6.40;5.80;;;;;;;17.93;78.00;96722.31;4872268;29;20203;-74
2022/07/10 22:50:25;;;;;;;6.55;5.65;;;;;;;17.91;78.69;96727.53;4872152;29;20065;-74
2022/07/10 22:52:56;;;;;;;6.40;5.80;;;;;;;17.74;80.06;96717.41;4872121;29;20065;-73
2022/07/10 22:55:23;;;;;;;7.30;5.70;;;;;;;17.81;78.84;96725.72;4855297;29;20064;-74
2022/07/10 22:57:51;;;;;;;6.40;5.82;;;;;;;17.43;79.09;96662.69;4855169;29;20136;-68
2022/07/10 23:01:10;;;;;;;;;;;;;;;;;;;;;
2022/07/10 23:03:49;;;;;;;4.70;4.28;;;;;;;18.52;66.89;96714.88;4872187;29;20143;-73
2022/07/10 23:10:16;;;;;;;6.35;5.05;;;;;;;18.34;71.45;96711.56;4841803;29;20067;-74
2022/07/10 23:28:44;;;;;;;;;;;;;;;17.44;78.01;96725.84;4870763;29;20077;-67
2022/07/10 23:31:11;;;;;;;5.95;5.38;;;;;;;17.33;78.22;96734.44;4871172;29;19927;-75
2022/07/10 23:33:38;;;;;;;6.25;5.75;;;;;;;17.28;79.12;96728.50;4871825;29;20057;-75
2022/07/10 23:36:06;;;;;;;8.50;6.07;;;;;;;17.34;78.70;96727.59;4871042;29;20577;-68
2022/07/10 23:38:33;;;;;;;6.78;6.10;;;;;;;17.38;78.01;96727.56;4871281;29;20072;-73
2022/07/10 23:41:06;;;;;;;7.68;5.53;;;;;;;17.24;78.04;96750.16;4871291;29;20060;-75
2022/07/10 23:44:38;;;;;;;;;;;;;;;;;;;;;
2022/07/10 23:57:16;;;;;;;7.38;5.90;;;;;;;17.05;79.99;96715.22;4869409;29;20068;-68
2022/07/10 23:59:43;;;;;;;8.18;6.28;;;;;;;17.02;79.02;96734.88;4871297;29;20065;-67
